Time,TemperatureF,DewpointF,PressureIn,WindDirection,WindDirectionDegrees,WindSpeedMPH,WindSpeedGustMPH,Humidity,HourlyPrecipIn,Conditions,Clouds,dailyrainin,SoftwareType,DateUTC
2013-01-14 00:07:00,51.9,51.9,30.00,North,360,0.0,0.0,100,0.00,,,0.00,VWS V14.01,2013-01-14 05:07:00,
2013-01-14 00:08:00,52.4,52.4,30.00,North,360,0.0,0.0,100,0.00,,,0.00,VWS V14.01,2013-01-14 05:08:00,
2013-01-14 00:13:00,52.4,52.4,30.00,North,360,0.0,0.0,100,0.00,,,0.00,VWS V14.01,2013-01-14 05:13:00,
2013-01-14 00:18:00,52.6,52.6,30.00,North,360,0.0,0.0,100,0.00,,,0.00,VWS V14.01,2013-01-14 05:18:00,
2013-01-14 00:23:00,52.9,52.9,30.00,North,360,0.0,0.0,100,0.00,,,0.00,VWS V14.01,2013-01-14 05:23:00,
2013-01-14 00:33:00,53.1,53.1,30.00,North,360,0.0,0.0,100,0.00,,,0.00,VWS V14.01,2013-01-14 05:33:00,
2013-01-14 00:38:00,53.2,53.2,29.99,North,360,0.0,0.0,100,0.00,,,0.00,VWS V14.01,2013-01-14 05:38:00,
2013-01-14 00:43:00,53.6,53.6,29.99,North,360,0.0,0.0,100,0.00,,,0.00,VWS V14.01,2013-01-14 05:43:00,
2013-01-14 00:48:00,53.6,53.6,29.99,North,360,0.0,0.0,100,0.00,,,0.00,VWS V14.01,2013-01-14 05:48:00,
2013-01-14 00:58:00,54.6,54.6,29.99,North,360,0.0,0.0,100,0.00,,,0.00,VWS V14.01,2013-01-14 05:58:00,
2013-01-14 01:07:00,54.8,54.8,29.99,North,360,0.0,0.0,100,0.00,,,0.00,VWS V14.01,2013-01-14 06:07:00,
2013-01-14 01:13:00,54.2,54.2,29.99,North,360,0.0,0.0,100,0.00,,,0.00,VWS V14.01,2013-01-14 06:13:00,
2013-01-14 01:18:00,54.3,54.3,29.99,North,360,0.0,0.0,100,0.00,,,0.00,VWS V14.01,2013-01-14 06:18:00,
2013-01-14 01:23:00,54.3,54.3,30.00,North,360,0.0,0.0,100,0.00,,,0.00,VWS V14.01,2013-01-14 06:23:00,
2013-01-14 01:28:00,54.1,54.1,30.00,North,360,0.0,0.0,100,0.00,,,0.00,VWS V14.01,2013-01-14 06:28:00,
2013-01-14 01:38:00,53.1,53.1,30.00,North,360,0.0,0.0,100,0.00,,,0.00,VWS V14.01,2013-01-14 06:38:00,
2013-01-14 01:43:00,54.2,54.2,30.00,North,360,0.0,0.0,100,0.00,,,0.00,VWS V14.01,2013-01-14 06:43:00,
2013-01-14 01:48:00,53.6,53.6,30.00,North,360,0.0,0.0,100,0.00,,,0.00,VWS V14.01,2013-01-14 06:48:00,
2013-01-14 01:53:00,53.7,53.7,30.00,North,360,0.0,0.0,100,0.00,,,0.00,VWS V14.01,2013-01-14 06:53:00,
2013-01-14 01:58:00,54.3,54.3,30.00,North,360,0.0,0.0,100,0.00,,,0.00,VWS V14.01,2013-01-14 06:58:00,
2013-01-14 02:07:00,54.4,54.4,29.99,North,360,0.0,0.0,100,0.00,,,0.00,VWS V14.01,2013-01-14 07:07:00,
2013-01-14 02:13:00,56.3,56.3,30.00,North,360,0.0,0.0,100,0.00,,,0.00,VWS V14.01,2013-01-14 07:13:00,
2013-01-14 02:18:00,56.9,56.9,30.00,North,360,0.0,0.0,100,0.00,,,0.00,VWS V14.01,2013-01-14 07:18:00,
2013-01-14 02:23:00,57.5,57.5,30.00,North,360,0.0,0.0,100,0.00,,,0.00,VWS V14.01,2013-01-14 07:23:00,
2013-01-14 02:33:00,57.7,57.7,30.01,North,360,0.0,0.0,100,0.00,,,0.00,VWS V14.01,2013-01-14 07:33:00,
2013-01-14 02:38:00,57.8,57.8,30.01,North,360,0.0,0.0,100,0.00,,,0.00,VWS V14.01,2013-01-14 07:38:00,
2013-01-14 02:43:00,57.8,57.8,30.01,North,360,0.0,0.0,100,0.00,,,0.00,VWS V14.01,2013-01-14 07:43:00,
2013-01-14 02:48:00,57.8,57.8,30.01,North,360,0.0,0.0,100,0.00,,,0.00,VWS V14.01,2013-01-14 07:48:00,
2013-01-14 02:58:00,58.0,58.0,30.01,North,360,0.0,0.0,100,0.00,,,0.00,VWS V14.01,2013-01-14 07:58:00,
2013-01-14 03:07:00,57.9,57.9,30.01,North,360,0.0,0.0,100,0.00,,,0.00,VWS V14.01,2013-01-14 08:07:00,
2013-01-14 03:13:00,57.9,57.9,30.00,North,360,0.0,0.0,100,0.00,,,0.00,VWS V14.01,2013-01-14 08:13:00,
2013-01-14 03:23:00,58.1,58.1,29.99,North,360,0.0,0.0,100,0.00,,,0.00,VWS V14.01,2013-01-14 08:23:00,
2013-01-14 03:28:00,58.0,58.0,29.98,North,360,0.0,0.0,100,0.00,,,0.00,VWS V14.01,2013-01-14 08:28:00,
2013-01-14 03:33:00,58.1,58.1,29.98,North,360,0.0,0.0,100,0.00,,,0.00,VWS V14.01,2013-01-14 08:33:00,
2013-01-14 03:43:00,58.2,58.2,29.98,North,360,0.0,0.0,100,0.00,,,0.00,VWS V14.01,2013-01-14 08:43:00,
2013-01-14 03:48:00,58.2,58.2,29.98,North,360,0.0,0.0,100,0.00,,,0.00,VWS V14.01,2013-01-14 08:48:00,
2013-01-14 03:53:00,58.1,58.1,29.98,North,360,0.0,0.0,100,0.00,,,0.00,VWS V14.01,2013-01-14 08:53:00,
2013-01-14 03:58:00,58.1,58.1,29.97,North,360,0.0,0.0,100,0.00,,BKN110,0.00,VWS V14.01,2013-01-14 08:58:00,
2013-01-14 04:07:00,58.1,58.1,29.98,North,360,0.0,0.0,100,0.00,,BKN110,0.00,VWS V14.01,2013-01-14 09:07:00,
2013-01-14 04:13:00,58.2,58.2,29.98,North,360,0.0,0.0,100,0.00,,BKN110,0.00,VWS V14.01,2013-01-14 09:13:00,
2013-01-14 04:23:00,58.4,58.4,29.97,North,360,0.0,0.0,100,0.00,,BKN110,0.00,VWS V14.01,2013-01-14 09:23:00,
2013-01-14 04:28:00,58.0,58.0,29.99,North,360,0.0,0.0,100,0.00,,BKN110,0.00,VWS V14.01,2013-01-14 09:28:00,
2013-01-14 04:33:00,58.4,58.4,29.99,North,360,0.0,0.0,100,0.00,,BKN110,0.00,VWS V14.01,2013-01-14 09:33:00,
2013-01-14 04:38:00,58.8,58.5,29.97,North,360,0.0,0.0,99,0.00,,BKN110,0.00,VWS V14.01,2013-01-14 09:38:00,
2013-01-14 04:43:00,59.0,58.7,29.98,North,360,0.0,0.0,99,0.00,,BKN110,0.00,VWS V14.01,2013-01-14 09:43:00,
2013-01-14 04:48:00,58.8,58.5,29.98,North,360,0.0,0.0,99,0.00,,BKN110,0.00,VWS V14.01,2013-01-14 09:48:00,
2013-01-14 04:53:00,59.1,58.5,29.99,North,360,0.0,0.0,98,0.00,,BKN110,0.00,VWS V14.01,2013-01-14 09:53:00,
2013-01-14 05:07:00,59.2,58.6,29.99,North,360,0.0,0.0,98,0.00,,SCT110,0.00,VWS V14.01,2013-01-14 10:07:00,
2013-01-14 05:13:00,59.3,58.7,29.99,North,360,0.0,0.0,98,0.00,,SCT110,0.00,VWS V14.01,2013-01-14 10:13:00,
2013-01-14 05:18:00,59.2,58.6,30.00,North,360,0.0,0.0,98,0.00,,SCT110,0.00,VWS V14.01,2013-01-14 10:18:00,
2013-01-14 05:23:00,59.1,58.5,30.00,North,360,0.0,0.0,98,0.00,,SCT110,0.00,VWS V14.01,2013-01-14 10:23:00,
2013-01-14 05:33:00,58.9,58.0,29.98,North,360,0.0,0.0,97,0.00,,SCT110,0.00,VWS V14.01,2013-01-14 10:33:00,
2013-01-14 09:13:00,58.3,52.2,30.14,North,360,0.0,0.0,80,0.00,,SCT110,0.00,VWS V14.01,2013-01-14 14:13:00,
2013-01-14 09:18:00,58.1,52.0,30.14,North,360,0.0,0.0,80,0.00,,SCT110,0.00,VWS V14.01,2013-01-14 14:18:00,
2013-01-14 09:23:00,57.9,51.4,30.14,North,360,0.0,0.0,79,0.00,,SCT110,0.00,VWS V14.01,2013-01-14 14:23:00,
2013-01-14 09:28:00,57.7,51.2,30.14,North,360,0.0,0.0,79,0.00,,SCT110,0.00,VWS V14.01,2013-01-14 14:28:00,
2013-01-14 09:33:00,57.5,51.4,30.14,North,360,0.0,0.0,80,0.00,,SCT110,0.00,VWS V14.01,2013-01-14 14:33:00,
2013-01-14 09:43:00,57.2,51.1,30.15,North,360,0.0,0.0,80,0.00,,SCT110,0.00,VWS V14.01,2013-01-14 14:43:00,
2013-01-14 09:48:00,57.4,50.5,30.16,North,360,0.0,0.0,78,0.00,,SCT110,0.00,VWS V14.01,2013-01-14 14:48:00,
2013-01-14 09:53:00,57.3,50.8,30.15,North,360,0.0,0.0,79,0.00,,SCT110,0.00,VWS V14.01,2013-01-14 14:53:00,
2013-01-14 09:58:00,57.2,50.7,30.16,North,360,0.0,0.0,79,0.00,,OVC100,0.00,VWS V14.01,2013-01-14 14:58:00,
2013-01-14 10:07:00,57.4,49.8,30.16,North,360,0.0,0.0,76,0.00,,OVC100,0.00,VWS V14.01,2013-01-14 15:07:00,
2013-01-14 10:13:00,57.4,48.5,30.17,North,360,0.0,0.0,72,0.00,,OVC100,0.00,VWS V14.01,2013-01-14 15:13:00,
2013-01-14 10:18:00,57.4,49.0,30.17,North,360,0.0,0.0,73,0.00,,OVC100,0.00,VWS V14.01,2013-01-14 15:18:00,
2013-01-14 10:28:00,57.3,46.8,30.18,North,360,0.0,0.0,68,0.00,,OVC100,0.00,VWS V14.01,2013-01-14 15:28:00,
2013-01-14 10:38:00,57.0,46.5,30.19,North,360,0.0,0.0,68,0.00,,OVC100,0.00,VWS V14.01,2013-01-14 15:38:00,
2013-01-14 10:43:00,57.1,45.7,30.18,North,360,0.0,0.0,66,0.00,,OVC100,0.00,VWS V14.01,2013-01-14 15:43:00,
2013-01-14 10:48:00,57.0,44.7,30.18,North,360,0.0,0.0,63,0.00,,OVC100,0.00,VWS V14.01,2013-01-14 15:48:00,
2013-01-14 10:53:00,56.8,45.0,30.17,North,360,0.0,0.0,64,0.00,,OVC100,0.00,VWS V14.01,2013-01-14 15:53:00,
2013-01-14 10:58:00,56.6,44.8,30.17,North,360,0.0,0.0,64,0.00,,OVC160,0.00,VWS V14.01,2013-01-14 15:58:00,
2013-01-14 11:07:00,56.7,44.4,30.17,North,360,0.0,0.0,63,0.00,,OVC160,0.00,VWS V14.01,2013-01-14 16:07:00,
2013-01-14 11:13:00,56.5,44.7,30.17,North,360,0.0,0.0,64,0.00,,OVC160,0.00,VWS V14.01,2013-01-14 16:13:00,
2013-01-14 11:18:00,56.5,44.7,30.17,North,360,0.0,0.0,64,0.00,,OVC160,0.00,VWS V14.01,2013-01-14 16:18:00,
2013-01-14 11:23:00,56.3,44.0,30.17,North,360,0.0,0.0,63,0.00,,OVC160,0.00,VWS V14.01,2013-01-14 16:23:00,
2013-01-14 11:28:00,56.2,43.5,30.17,North,360,0.0,0.0,62,0.00,,OVC160,0.00,VWS V14.01,2013-01-14 16:28:00,
2013-01-14 11:33:00,56.1,44.3,30.17,North,360,0.0,0.0,64,0.00,,OVC160,0.00,VWS V14.01,2013-01-14 16:33:00,
2013-01-14 11:38:00,56.0,43.8,30.17,North,360,0.0,0.0,63,0.00,,OVC160,0.00,VWS V14.01,2013-01-14 16:38:00,
2013-01-14 11:48:00,56.1,43.4,30.18,North,360,0.0,0.0,62,0.00,,OVC160,0.00,VWS V14.01,2013-01-14 16:48:00,
2013-01-14 11:53:00,56.0,43.3,30.17,North,360,0.0,0.0,62,0.00,,OVC160,0.00,VWS V14.01,2013-01-14 16:53:00,
2013-01-14 11:58:00,55.9,43.7,30.17,North,360,0.0,0.0,63,0.00,,OVC038,0.00,VWS V14.01,2013-01-14 16:58:00,
2013-01-14 12:07:00,55.8,44.0,30.16,North,360,0.0,0.0,64,0.00,,OVC038,0.00,VWS V14.01,2013-01-14 17:07:00,
2013-01-14 12:13:00,55.6,42.9,30.15,North,360,0.0,0.0,62,0.00,,OVC038,0.00,VWS V14.01,2013-01-14 17:13:00,
2013-01-14 12:18:00,55.7,43.0,30.16,North,360,0.0,0.0,62,0.00,,OVC038,0.00,VWS V14.01,2013-01-14 17:18:00,
2013-01-14 12:23:00,55.6,42.9,30.16,North,360,0.0,0.0,62,0.00,,OVC038,0.00,VWS V14.01,2013-01-14 17:23:00,
2013-01-14 12:33:00,55.4,42.7,30.15,North,360,0.0,0.0,62,0.00,,OVC038,0.00,VWS V14.01,2013-01-14 17:33:00,
2013-01-14 12:38:00,55.3,42.6,30.15,North,360,0.0,0.0,62,0.00,,OVC038,0.00,VWS V14.01,2013-01-14 17:38:00,
2013-01-14 12:43:00,55.2,42.5,30.15,North,360,0.0,0.0,62,0.00,,OVC038,0.00,VWS V14.01,2013-01-14 17:43:00,
2013-01-14 12:48:00,55.1,42.9,30.15,North,360,0.0,0.0,63,0.00,,OVC038,0.00,VWS V14.01,2013-01-14 17:48:00,
2013-01-14 12:53:00,55.2,42.1,30.16,North,360,0.0,0.0,61,0.00,,OVC038,0.00,VWS V14.01,2013-01-14 17:53:00,
2013-01-14 12:58:00,55.1,42.0,30.16,North,360,0.0,0.0,61,0.00,,OVC038,0.00,VWS V14.01,2013-01-14 17:58:00,
2013-01-14 13:07:00,54.9,42.2,30.16,North,360,0.0,0.0,62,0.00,,OVC038,0.00,VWS V14.01,2013-01-14 18:07:00,
2013-01-14 13:13:00,54.9,42.2,30.17,North,360,0.0,0.0,62,0.00,,OVC038,0.00,VWS V14.01,2013-01-14 18:13:00,
2013-01-14 13:18:00,54.8,42.6,30.18,North,360,0.0,0.0,63,0.00,,OVC038,0.00,VWS V14.01,2013-01-14 18:18:00,
2013-01-14 13:23:00,54.5,42.3,30.16,North,360,0.0,0.0,63,0.00,,OVC038,0.00,VWS V14.01,2013-01-14 18:23:00,
2013-01-14 13:28:00,54.5,41.9,30.16,North,360,0.0,0.0,62,0.00,,OVC038,0.00,VWS V14.01,2013-01-14 18:28:00,
2013-01-14 13:33:00,54.4,42.2,30.15,North,360,0.0,0.0,63,0.00,,OVC038,0.00,VWS V14.01,2013-01-14 18:33:00,
2013-01-14 13:38:00,54.4,41.8,30.16,North,360,0.0,0.0,62,0.00,,OVC038,0.00,VWS V14.01,2013-01-14 18:38:00,
2013-01-14 13:43:00,54.3,42.1,30.16,North,360,0.0,0.0,63,0.00,,OVC038,0.00,VWS V14.01,2013-01-14 18:43:00,
2013-01-14 13:48:00,54.2,42.5,30.15,North,360,0.0,0.0,64,0.00,,OVC038,0.00,VWS V14.01,2013-01-14 18:48:00,
2013-01-14 13:58:00,54.1,42.4,30.16,North,360,0.0,0.0,64,0.00,,OVC038,0.00,VWS V14.01,2013-01-14 18:58:00,
2013-01-14 14:07:00,54.2,42.5,30.16,North,360,0.0,0.0,64,0.00,,OVC038,0.00,VWS V14.01,2013-01-14 19:07:00,
2013-01-14 14:13:00,54.3,41.7,30.17,North,360,0.0,0.0,62,0.00,,OVC038,0.00,VWS V14.01,2013-01-14 19:13:00,
2013-01-14 14:18:00,54.2,41.1,30.17,North,360,0.0,0.0,61,0.00,,OVC038,0.00,VWS V14.01,2013-01-14 19:18:00,
2013-01-14 14:23:00,54.1,41.0,30.18,North,360,0.0,0.0,61,0.00,,OVC038,0.00,VWS V14.01,2013-01-14 19:23:00,
2013-01-14 14:28:00,53.9,41.3,30.18,North,360,0.0,0.0,62,0.00,,OVC038,0.00,VWS V14.01,2013-01-14 19:28:00,
2013-01-14 14:33:00,53.7,42.0,30.18,North,360,0.0,0.0,64,0.00,,OVC038,0.00,VWS V14.01,2013-01-14 19:33:00,
2013-01-14 14:38:00,53.6,41.9,30.18,North,360,0.0,0.0,64,0.00,,OVC038,0.00,VWS V14.01,2013-01-14 19:38:00,
2013-01-14 14:43:00,53.5,42.3,30.18,North,360,0.0,0.0,66,0.00,,OVC038,0.00,VWS V14.01,2013-01-14 19:43:00,
2013-01-14 14:48:00,53.5,41.8,30.18,North,360,0.0,0.0,64,0.00,,OVC038,0.00,VWS V14.01,2013-01-14 19:48:00,
2013-01-14 14:58:00,53.4,41.3,30.18,North,360,0.0,0.0,63,0.00,,OVC038,0.00,VWS V14.01,2013-01-14 19:58:00,
2013-01-14 15:07:00,53.3,41.2,30.17,North,360,0.0,0.0,63,0.00,,OVC038,0.00,VWS V14.01,2013-01-14 20:07:00,
2013-01-14 15:13:00,53.3,40.7,30.19,North,360,0.0,0.0,62,0.00,,OVC038,0.00,VWS V14.01,2013-01-14 20:13:00,
2013-01-14 15:23:00,53.4,40.4,30.20,North,360,0.0,0.0,61,0.00,,OVC038,0.00,VWS V14.01,2013-01-14 20:23:00,
2013-01-14 15:28:00,53.3,40.3,30.20,North,360,0.0,0.0,61,0.00,,OVC038,0.00,VWS V14.01,2013-01-14 20:28:00,
2013-01-14 15:38:00,53.0,40.0,30.22,North,360,0.0,0.0,61,0.00,,OVC038,0.00,VWS V14.01,2013-01-14 20:38:00,
2013-01-14 15:43:00,52.7,40.2,30.21,North,360,0.0,0.0,62,0.00,,OVC038,0.00,VWS V14.01,2013-01-14 20:43:00,
2013-01-14 15:48:00,52.7,40.6,30.22,North,360,0.0,0.0,63,0.00,,OVC038,0.00,VWS V14.01,2013-01-14 20:48:00,
2013-01-14 15:53:00,52.5,40.4,30.23,North,360,0.0,0.0,63,0.00,,OVC038,0.00,VWS V14.01,2013-01-14 20:53:00,
2013-01-14 15:58:00,52.4,40.8,30.22,North,360,0.0,0.0,64,0.00,,OVC036,0.00,VWS V14.01,2013-01-14 20:58:00,
2013-01-14 16:07:00,52.4,40.8,30.22,North,360,0.0,0.0,64,0.00,,OVC036,0.00,VWS V14.01,2013-01-14 21:07:00,
2013-01-14 16:13:00,51.8,41.1,30.21,North,360,0.0,0.0,67,0.00,,OVC036,0.00,VWS V14.01,2013-01-14 21:13:00,
2013-01-14 16:18:00,51.7,41.0,30.21,North,360,0.0,0.0,67,0.00,,OVC036,0.00,VWS V14.01,2013-01-14 21:18:00,
2013-01-14 16:23:00,51.5,41.2,30.20,North,360,0.0,0.0,68,0.00,,OVC036,0.00,VWS V14.01,2013-01-14 21:23:00,
2013-01-14 16:28:00,51.1,41.3,30.19,North,360,0.0,0.0,69,0.00,,OVC036,0.00,VWS V14.01,2013-01-14 21:28:00,
2013-01-14 16:33:00,50.9,41.5,30.20,North,360,0.0,0.0,70,0.00,,OVC036,0.00,VWS V14.01,2013-01-14 21:33:00,
2013-01-14 16:38:00,50.8,41.4,30.20,North,360,0.0,0.0,70,0.00,,OVC036,0.00,VWS V14.01,2013-01-14 21:38:00,
2013-01-14 16:43:00,50.7,41.7,30.21,North,360,0.0,0.0,71,0.00,,OVC036,0.00,VWS V14.01,2013-01-14 21:43:00,
2013-01-14 16:53:00,50.5,41.9,30.20,North,360,0.0,0.0,72,0.00,,OVC036,0.00,VWS V14.01,2013-01-14 21:53:00,
2013-01-14 16:58:00,50.6,41.6,30.21,North,360,0.0,0.0,71,0.00,,-RA,0.00,VWS V14.01,2013-01-14 21:58:00,
2013-01-14 17:07:00,50.7,41.7,30.22,North,360,0.0,0.0,71,0.00,,-RA,0.00,VWS V14.01,2013-01-14 22:07:00,
2013-01-14 17:13:00,51.0,41.6,30.24,North,360,0.0,0.0,70,0.00,,-RA,0.00,VWS V14.01,2013-01-14 22:13:00,
2013-01-14 17:18:00,51.1,41.7,30.24,North,360,0.0,0.0,70,0.00,,-RA,0.00,VWS V14.01,2013-01-14 22:18:00,
2013-01-14 17:23:00,51.1,41.7,30.23,North,360,0.0,0.0,70,0.00,,-RA,0.00,VWS V14.01,2013-01-14 22:23:00,
2013-01-14 17:28:00,50.9,41.5,30.23,North,360,0.0,0.0,70,0.00,,-RA,0.00,VWS V14.01,2013-01-14 22:28:00,
2013-01-14 17:33:00,50.9,41.9,30.23,North,360,0.0,0.0,71,0.00,,-RA,0.00,VWS V14.01,2013-01-14 22:33:00,
2013-01-14 17:43:00,50.8,41.8,30.23,North,360,0.0,0.0,71,0.00,,-RA,0.00,VWS V14.01,2013-01-14 22:43:00,
2013-01-14 17:48:00,51.0,41.6,30.24,North,360,0.0,0.0,70,0.00,,-RA,0.00,VWS V14.01,2013-01-14 22:48:00,
2013-01-14 17:53:00,51.3,41.5,30.25,North,360,0.0,0.0,69,0.00,,-RA,0.00,VWS V14.01,2013-01-14 22:53:00,
2013-01-14 17:58:00,51.2,41.8,30.23,North,360,0.0,0.0,70,0.00,,OVC070,0.00,VWS V14.01,2013-01-14 22:58:00,
2013-01-14 18:07:00,51.0,42.8,30.22,North,360,0.0,0.0,73,0.00,,OVC070,0.00,VWS V14.01,2013-01-14 23:07:00,
2013-01-14 18:13:00,51.0,42.0,30.23,North,360,0.0,0.0,71,0.00,,OVC070,0.00,VWS V14.01,2013-01-14 23:13:00,
2013-01-14 18:18:00,51.0,41.6,30.23,North,360,0.0,0.0,70,0.00,,OVC070,0.00,VWS V14.01,2013-01-14 23:18:00,
2013-01-14 18:28:00,51.4,40.3,30.24,North,360,0.0,0.0,66,0.00,,OVC070,0.00,VWS V14.01,2013-01-14 23:28:00,
2013-01-14 18:33:00,51.5,39.9,30.24,North,360,0.0,0.0,64,0.00,,OVC070,0.00,VWS V14.01,2013-01-14 23:33:00,
2013-01-14 18:38:00,51.5,40.4,30.24,North,360,0.0,0.0,66,0.00,,OVC070,0.00,VWS V14.01,2013-01-14 23:38:00,
2013-01-14 18:43:00,51.7,40.1,30.25,North,360,0.0,0.0,64,0.00,,OVC070,0.00,VWS V14.01,2013-01-14 23:43:00,
2013-01-14 18:48:00,51.6,40.5,30.25,North,360,0.0,0.0,66,0.00,,OVC070,0.00,VWS V14.01,2013-01-14 23:48:00,
2013-01-14 18:53:00,51.8,40.2,30.26,North,360,0.0,0.0,64,0.00,,OVC070,0.00,VWS V14.01,2013-01-14 23:53:00,
2013-01-14 18:58:00,51.9,40.3,30.26,North,360,0.0,0.0,64,0.00,,OVC060,0.00,VWS V14.01,2013-01-14 23:58:00,
2013-01-14 19:07:00,51.8,40.2,30.26,North,360,0.0,0.0,64,0.00,,OVC060,0.00,VWS V14.01,2013-01-15 00:07:00,
2013-01-14 19:13:00,51.8,39.8,30.27,North,360,0.0,0.0,63,0.00,,OVC060,0.00,VWS V14.01,2013-01-15 00:13:00,
2013-01-14 19:18:00,51.6,39.6,30.28,North,360,0.0,0.0,63,0.00,,OVC060,0.00,VWS V14.01,2013-01-15 00:18:00,
2013-01-14 19:23:00,51.4,38.9,30.28,North,360,0.0,0.0,62,0.00,,OVC060,0.00,VWS V14.01,2013-01-15 00:23:00,
2013-01-14 19:28:00,51.1,38.7,30.28,North,360,0.0,0.0,62,0.00,,OVC060,0.00,VWS V14.01,2013-01-15 00:28:00,
2013-01-14 19:33:00,50.9,38.0,30.28,North,360,0.0,0.0,61,0.00,,OVC060,0.00,VWS V14.01,2013-01-15 00:33:00,
2013-01-14 19:38:00,50.9,38.0,30.28,North,360,0.0,0.0,61,0.00,,OVC060,0.00,VWS V14.01,2013-01-15 00:38:00,
2013-01-14 19:43:00,50.7,38.7,30.27,North,360,0.0,0.0,63,0.00,,OVC060,0.00,VWS V14.01,2013-01-15 00:43:00,
2013-01-14 19:48:00,50.8,38.4,30.28,North,360,0.0,0.0,62,0.00,,OVC060,0.00,VWS V14.01,2013-01-15 00:48:00,
2013-01-14 19:53:00,50.8,38.4,30.28,North,360,0.0,0.0,62,0.00,,OVC060,0.00,VWS V14.01,2013-01-15 00:53:00,
2013-01-14 19:58:00,50.9,38.0,30.28,North,360,0.0,0.0,61,0.00,,OVC044,0.00,VWS V14.01,2013-01-15 00:58:00,
2013-01-14 20:07:00,50.9,38.5,30.28,North,360,0.0,0.0,62,0.00,,OVC044,0.00,VWS V14.01,2013-01-15 01:07:00,
2013-01-14 20:13:00,50.5,39.0,30.29,North,360,0.0,0.0,64,0.00,,OVC044,0.00,VWS V14.01,2013-01-15 01:13:00,
2013-01-14 20:18:00,50.0,39.8,30.30,North,360,0.0,0.0,68,0.00,,OVC044,0.00,VWS V14.01,2013-01-15 01:18:00,
2013-01-14 20:23:00,49.3,41.5,30.30,North,360,0.0,0.0,74,0.00,,OVC044,0.00,VWS V14.01,2013-01-15 01:23:00,
2013-01-14 20:33:00,47.7,41.8,30.29,North,360,0.0,0.0,80,0.00,,OVC044,0.00,VWS V14.01,2013-01-15 01:33:00,
2013-01-14 20:38:00,47.5,42.0,30.29,North,360,0.0,0.0,81,0.00,,OVC044,0.00,VWS V14.01,2013-01-15 01:38:00,
2013-01-14 20:43:00,47.2,40.6,30.29,North,360,0.0,0.0,78,0.00,,OVC044,0.00,VWS V14.01,2013-01-15 01:43:00,
2013-01-14 20:53:00,46.4,40.6,30.29,North,360,0.0,0.0,80,0.00,,OVC044,0.00,VWS V14.01,2013-01-15 01:53:00,
2013-01-14 20:58:00,46.1,39.6,30.29,North,360,0.0,0.0,78,0.00,,OVC046,0.00,VWS V14.01,2013-01-15 01:58:00,
2013-01-14 21:07:00,45.7,39.5,30.29,North,360,0.0,0.0,79,0.00,,OVC046,0.00,VWS V14.01,2013-01-15 02:07:00,
2013-01-14 21:13:00,45.0,39.2,30.29,North,360,0.0,0.0,80,0.00,,OVC046,0.00,VWS V14.01,2013-01-15 02:13:00,
2013-01-14 21:18:00,44.9,39.5,30.29,North,360,0.0,0.0,81,0.00,,OVC046,0.00,VWS V14.01,2013-01-15 02:18:00,
2013-01-14 21:23:00,44.8,40.1,30.29,North,360,0.0,0.0,83,0.00,,OVC046,0.00,VWS V14.01,2013-01-15 02:23:00,
2013-01-14 21:33:00,44.0,37.9,30.29,North,360,0.0,0.0,79,0.00,,OVC046,0.00,VWS V14.01,2013-01-15 02:33:00,
2013-01-14 21:38:00,43.7,38.0,30.29,North,360,0.0,0.0,80,0.00,,OVC046,0.00,VWS V14.01,2013-01-15 02:38:00,
2013-01-14 21:43:00,43.5,37.4,30.29,North,360,0.0,0.0,79,0.00,,OVC046,0.00,VWS V14.01,2013-01-15 02:43:00,
2013-01-14 21:48:00,43.4,36.2,30.29,North,360,0.0,0.0,76,0.00,,OVC046,0.00,VWS V14.01,2013-01-15 02:48:00,
2013-01-14 21:53:00,43.4,36.2,30.29,North,360,0.0,0.0,76,0.00,,OVC046,0.00,VWS V14.01,2013-01-15 02:53:00,
2013-01-14 22:07:00,43.3,36.8,30.30,North,360,0.0,0.0,78,0.00,,-RA,0.00,VWS V14.01,2013-01-15 03:07:00,
2013-01-14 22:13:00,43.0,36.9,30.31,North,360,0.0,0.0,79,0.00,,-RA,0.00,VWS V14.01,2013-01-15 03:13:00,
2013-01-14 22:23:00,42.4,38.1,30.32,North,360,0.0,0.0,84,0.00,,-RA,0.00,VWS V14.01,2013-01-15 03:23:00,
2013-01-14 22:28:00,42.4,37.7,30.32,North,360,0.0,0.0,83,0.00,,-RA,0.00,VWS V14.01,2013-01-15 03:28:00,
2013-01-14 22:33:00,42.1,38.4,30.32,North,360,0.0,0.0,87,0.00,,-RA,0.00,VWS V14.01,2013-01-15 03:33:00,
2013-01-14 22:38:00,42.0,38.0,30.32,North,360,0.0,0.0,86,0.00,,-RA,0.00,VWS V14.01,2013-01-15 03:38:00,
2013-01-14 22:43:00,41.8,38.5,30.32,North,360,0.0,0.0,88,0.00,,-RA,0.00,VWS V14.01,2013-01-15 03:43:00,
2013-01-14 22:48:00,42.0,38.7,30.32,North,360,0.0,0.0,88,0.00,,-RA,0.00,VWS V14.01,2013-01-15 03:48:00,
2013-01-14 22:53:00,42.0,39.3,30.32,North,360,0.0,0.0,90,0.00,,-RA,0.00,VWS V14.01,2013-01-15 03:53:00,
2013-01-14 22:58:00,41.9,39.5,30.32,North,360,0.0,0.0,91,0.00,,-RA,0.00,VWS V14.01,2013-01-15 03:58:00,
2013-01-14 23:03:00,41.8,39.4,30.32,North,360,0.0,0.0,91,0.00,,-RA,0.00,VWS V14.01,2013-01-15 04:03:00,
2013-01-14 23:08:00,41.8,39.1,30.31,North,360,0.0,0.0,90,0.00,,-RA,0.00,VWS V14.01,2013-01-15 04:08:00,
2013-01-14 23:18:00,41.6,39.2,30.32,North,360,0.0,0.0,91,0.00,,-RA,0.00,VWS V14.01,2013-01-15 04:18:00,
2013-01-14 23:23:00,41.6,38.9,30.31,North,360,0.0,0.0,90,0.00,,-RA,0.00,VWS V14.01,2013-01-15 04:23:00,
2013-01-14 23:28:00,41.3,38.0,30.31,North,360,0.0,0.0,88,0.00,,-RA,0.00,VWS V14.01,2013-01-15 04:28:00,
2013-01-14 23:33:00,41.0,37.7,30.31,North,360,0.0,0.0,88,0.00,,-RA,0.00,VWS V14.01,2013-01-15 04:33:00,
2013-01-14 23:38:00,40.9,37.9,30.31,North,360,0.0,0.0,89,0.00,,-RA,0.00,VWS V14.01,2013-01-15 04:38:00,
2013-01-14 23:43:00,40.7,37.7,30.32,North,360,0.0,0.0,89,0.00,,-RA,0.00,VWS V14.01,2013-01-15 04:43:00,
2013-01-14 23:48:00,40.7,38.0,30.32,North,360,0.0,0.0,90,0.00,,-RA,0.00,VWS V14.01,2013-01-15 04:48:00,
2013-01-14 23:53:00,40.5,37.8,30.32,North,360,0.0,0.0,90,0.00,,-RA,0.00,VWS V14.01,2013-01-15 04:53:00,
2013-01-14 23:58:00,40.5,38.1,30.32,North,360,0.0,0.0,91,0.00,,-RA,0.00,VWS V14.01,2013-01-15 04:58:00,